Time;durP1;ratioP1;P1;durP2;ratioP2;P2;SDS_P1;SDS_P2;PMS_P1;PMS_P2;Temp;Humidity;BMP_temperature;BMP_pressure;BME280_temperature;BME280_humidity;BME280_pressure;Samples;Min_cycle;Max_cycle;Signal;HPM_P1;HPM_P2
2023/12/02 00:00:27;;;;;;;33.75;13.68;;;-1.20;99.90;;;;;;5016071;28;20036;-92
2023/12/02 00:02:53;;;;;;;31.58;14.10;;;-1.20;99.90;;;;;;5038675;28;20101;-92
2023/12/02 00:05:18;;;;;;;26.15;12.07;;;-1.20;99.90;;;;;;5019704;28;20033;-92
2023/12/02 00:07:44;;;;;;;36.05;14.68;;;-1.20;99.90;;;;;;5017658;28;20025;-92
2023/12/02 00:10:11;;;;;;;29.95;13.68;;;-1.20;99.90;;;;;;5016188;28;20029;-92
2023/12/02 00:12:37;;;;;;;35.33;15.15;;;-1.20;99.90;;;;;;5012204;28;20057;-92
2023/12/02 00:15:03;;;;;;;31.55;13.85;;;-1.10;99.90;;;;;;5009300;28;20515;-92
2023/12/02 00:17:29;;;;;;;34.53;14.63;;;-1.20;99.90;;;;;;5012827;28;20022;-93
2023/12/02 00:19:54;;;;;;;36.67;15.60;;;-1.20;99.90;;;;;;5009176;28;20421;-93
2023/12/02 00:22:20;;;;;;;34.65;14.52;;;-1.20;99.90;;;;;;5015350;28;20056;-93
2023/12/02 00:24:45;;;;;;;31.35;13.10;;;-1.20;99.90;;;;;;5018470;28;20021;-92
2023/12/02 00:27:11;;;;;;;36.75;15.35;;;-1.20;99.90;;;;;;5017176;28;20045;-93
2023/12/02 00:29:37;;;;;;;35.58;15.40;;;-1.10;99.90;;;;;;5011304;28;20477;-93
2023/12/02 00:32:03;;;;;;;37.67;14.50;;;-1.20;99.90;;;;;;5024371;28;20379;-92
2023/12/02 00:34:28;;;;;;;35.40;14.32;;;-1.20;99.90;;;;;;5017534;28;20072;-92
2023/12/02 00:36:54;;;;;;;35.60;14.77;;;-1.20;99.90;;;;;;5016802;28;20029;-92
2023/12/02 00:39:19;;;;;;;33.10;14.52;;;-1.10;99.90;;;;;;5008366;28;20128;-93
2023/12/02 00:41:45;;;;;;;35.42;15.45;;;-1.10;99.90;;;;;;5016060;28;20021;-92
2023/12/02 00:44:11;;;;;;;36.90;16.42;;;-1.10;99.90;;;;;;5016081;28;20033;-93
2023/12/02 00:46:36;;;;;;;35.28;15.25;;;-1.10;99.90;;;;;;5019160;28;20035;-92
2023/12/02 00:49:02;;;;;;;34.65;14.35;;;-1.10;99.90;;;;;;5026068;28;20025;-93
2023/12/02 00:51:28;;;;;;;36.40;15.30;;;-1.10;99.90;;;;;;5008403;28;20029;-92
2023/12/02 00:53:53;;;;;;;34.83;14.82;;;-1.10;99.90;;;;;;5028809;28;20030;-92
2023/12/02 00:56:19;;;;;;;38.30;15.27;;;-1.20;99.90;;;;;;5014456;28;20063;-93
2023/12/02 00:58:45;;;;;;;36.60;15.73;;;-1.20;99.90;;;;;;5005486;28;20025;-92
2023/12/02 01:01:10;;;;;;;38.22;15.98;;;-1.20;99.90;;;;;;5015859;28;20021;-93
2023/12/02 01:03:36;;;;;;;40.17;17.27;;;-1.20;99.90;;;;;;5016749;28;20032;-92
2023/12/02 01:06:01;;;;;;;37.35;15.65;;;-1.20;99.90;;;;;;5018799;28;20037;-92
2023/12/02 01:08:27;;;;;;;40.15;16.48;;;-1.20;99.90;;;;;;5018264;28;20116;-92
2023/12/02 01:10:52;;;;;;;38.53;15.77;;;-1.30;99.90;;;;;;5019767;28;20025;-92
2023/12/02 01:13:18;;;;;;;45.60;17.50;;;-1.20;99.90;;;;;;5021605;28;20056;-92
2023/12/02 01:15:44;;;;;;;38.38;16.77;;;-1.30;99.90;;;;;;5020584;28;20021;-92
2023/12/02 01:18:09;;;;;;;43.13;17.17;;;-1.30;99.90;;;;;;5021328;28;20025;-93
2023/12/02 01:20:35;;;;;;;41.58;17.10;;;-1.30;99.90;;;;;;5011812;28;20124;-92
2023/12/02 01:23:00;;;;;;;38.42;16.00;;;-1.30;99.90;;;;;;5023770;28;20452;-93
2023/12/02 01:25:27;;;;;;;38.55;15.48;;;-1.30;99.90;;;;;;5018566;28;20519;-92
2023/12/02 01:27:52;;;;;;;40.30;16.75;;;-1.30;99.90;;;;;;5029261;28;20021;-94
2023/12/02 01:30:18;;;;;;;42.55;17.00;;;-1.30;99.90;;;;;;5011455;28;20032;-93
2023/12/02 01:32:43;;;;;;;41.92;16.55;;;-1.40;99.90;;;;;;5023650;28;20025;-94
2023/12/02 01:35:09;;;;;;;42.17;16.20;;;-1.30;99.90;;;;;;5035748;28;20029;-93
2023/12/02 01:37:35;;;;;;;38.92;14.55;;;-1.40;99.90;;;;;;5016291;28;20052;-93
2023/12/02 01:40:00;;;;;;;40.63;16.10;;;-1.40;99.90;;;;;;5015147;28;20029;-93
2023/12/02 01:42:26;;;;;;;39.40;16.15;;;-1.40;99.90;;;;;;5019149;28;20406;-93
2023/12/02 01:44:52;;;;;;;42.20;16.02;;;-1.50;99.90;;;;;;5011810;28;20026;-93
2023/12/02 01:47:17;;;;;;;37.47;15.48;;;-1.50;99.90;;;;;;5023756;28;20106;-93
2023/12/02 01:49:44;;;;;;;39.55;15.98;;;-1.50;99.90;;;;;;5011903;28;20024;-91
2023/12/02 01:52:11;;;;;;;34.28;15.07;;;-1.50;99.90;;;;;;5025477;28;20030;-92
2023/12/02 01:54:37;;;;;;;41.92;16.02;;;-1.60;99.90;;;;;;5014781;28;20029;-94
2023/12/02 01:57:02;;;;;;;40.92;17.40;;;-1.50;99.90;;;;;;5015273;28;20036;-92
2023/12/02 01:59:31;;;;;;;36.05;14.75;;;-1.50;99.90;;;;;;5021719;28;20477;-91
2023/12/02 02:01:57;;;;;;;39.47;16.40;;;-1.50;99.90;;;;;;5025896;28;20504;-90
2023/12/02 02:04:23;;;;;;;34.03;14.90;;;-1.50;99.90;;;;;;5017968;28;20112;-92
2023/12/02 02:06:49;;;;;;;38.67;14.85;;;-1.50;99.90;;;;;;5015326;28;20037;-90
2023/12/02 02:09:14;;;;;;;39.65;14.52;;;-1.50;99.90;;;;;;5015303;28;20064;-90
2023/12/02 02:11:40;;;;;;;37.95;14.55;;;-1.50;99.90;;;;;;5025352;28;20053;-90
2023/12/02 02:14:06;;;;;;;40.05;15.63;;;-1.50;99.90;;;;;;5023719;28;20021;-90
2023/12/02 02:16:32;;;;;;;37.30;14.38;;;-1.50;99.90;;;;;;5002737;28;20030;-91
2023/12/02 02:18:57;;;;;;;35.95;15.20;;;-1.50;99.90;;;;;;5020139;28;20108;-91
2023/12/02 02:21:23;;;;;;;37.67;15.25;;;-1.50;99.90;;;;;;5014795;28;20017;-91
2023/12/02 02:23:48;;;;;;;38.35;15.05;;;-1.50;99.90;;;;;;5015073;28;20053;-90
2023/12/02 02:26:14;;;;;;;42.30;17.45;;;-1.50;99.90;;;;;;5015156;28;20040;-91
2023/12/02 02:28:40;;;;;;;34.33;14.18;;;-1.50;99.90;;;;;;5010150;28;20036;-91
2023/12/02 02:31:05;;;;;;;38.70;16.42;;;-1.50;99.90;;;;;;5021604;28;20026;-91
2023/12/02 02:33:34;;;;;;;42.92;16.67;;;-1.50;99.90;;;;;;5017246;28;20029;-91
2023/12/02 02:36:00;;;;;;;40.47;16.83;;;-1.50;99.90;;;;;;5018647;28;20022;-91
2023/12/02 02:38:25;;;;;;;41.40;16.20;;;-1.50;99.90;;;;;;5017140;28;20137;-92
2023/12/02 02:40:51;;;;;;;34.05;15.27;;;-1.50;99.90;;;;;;5012140;28;20111;-91
2023/12/02 02:43:17;;;;;;;40.22;15.32;;;-1.40;99.90;;;;;;5014437;28;20033;-92
2023/12/02 02:45:43;;;;;;;43.08;16.40;;;-1.50;99.90;;;;;;5014308;28;20477;-91
2023/12/02 02:48:09;;;;;;;39.78;15.77;;;-1.50;99.90;;;;;;5016508;28;20017;-91
2023/12/02 02:50:34;;;;;;;36.20;14.65;;;-1.50;99.90;;;;;;5027167;28;20033;-91
2023/12/02 02:53:00;;;;;;;31.92;14.55;;;-1.50;99.90;;;;;;5024023;28;20029;-91
2023/12/02 02:55:26;;;;;;;35.33;14.68;;;-1.50;99.90;;;;;;5014709;28;20563;-91
2023/12/02 02:57:52;;;;;;;39.67;15.65;;;-1.40;99.90;;;;;;5017008;28;20541;-91
2023/12/02 03:00:18;;;;;;;37.63;14.60;;;-1.50;99.90;;;;;;5021014;28;20412;-91
2023/12/02 03:02:44;;;;;;;40.60;16.45;;;-1.50;99.90;;;;;;5010593;28;20034;-91
2023/12/02 03:05:10;;;;;;;38.33;15.10;;;-1.50;99.90;;;;;;5015860;28;20096;-92
2023/12/02 03:07:35;;;;;;;37.45;15.85;;;-1.50;99.90;;;;;;5014835;28;20037;-91
2023/12/02 03:10:01;;;;;;;35.50;15.00;;;-1.50;99.90;;;;;;5018748;28;20500;-91
2023/12/02 03:12:27;;;;;;;39.60;16.65;;;-1.50;99.90;;;;;;5025974;28;20044;-91
2023/12/02 03:14:55;;;;;;;38.75;15.23;;;-1.50;99.90;;;;;;5016699;28;20033;-91
2023/12/02 03:17:21;;;;;;;42.42;16.08;;;-1.40;99.90;;;;;;5017918;28;20021;-91
2023/12/02 03:19:47;;;;;;;42.30;15.25;;;-1.40;99.90;;;;;;5030295;28;20022;-91
2023/12/02 03:22:13;;;;;;;41.08;15.25;;;-1.40;99.90;;;;;;5018002;28;20033;-91
2023/12/02 03:24:39;;;;;;;37.97;16.42;;;-1.40;99.90;;;;;;5017869;28;20025;-91
2023/12/02 03:27:05;;;;;;;39.80;16.23;;;-1.40;99.90;;;;;;5016544;28;20480;-90
2023/12/02 03:29:30;;;;;;;41.35;15.75;;;-1.40;99.90;;;;;;5017438;28;20025;-90
2023/12/02 03:31:56;;;;;;;41.65;15.88;;;-1.40;99.90;;;;;;5013474;28;20032;-91
2023/12/02 03:34:22;;;;;;;41.85;15.63;;;-1.30;99.90;;;;;;5015593;28;20443;-90
2023/12/02 03:36:47;;;;;;;39.10;15.63;;;-1.40;99.90;;;;;;5013809;28;20025;-93
2023/12/02 03:39:13;;;;;;;40.50;17.58;;;-1.40;99.90;;;;;;5018152;28;20041;-91
2023/12/02 03:41:42;;;;;;;37.45;14.88;;;-1.40;99.90;;;;;;5017087;28;20057;-91
2023/12/02 03:44:09;;;;;;;39.50;14.82;;;-1.30;99.90;;;;;;5035320;28;20112;-91
2023/12/02 03:46:37;;;;;;;39.13;15.95;;;-1.30;99.90;;;;;;5024025;28;20048;-91
2023/12/02 03:49:04;;;;;;;36.08;15.55;;;-1.30;99.90;;;;;;5025567;28;20480;-91
2023/12/02 03:51:30;;;;;;;42.45;16.95;;;-1.30;99.90;;;;;;5015106;28;20041;-91
2023/12/02 03:53:56;;;;;;;36.13;14.07;;;-1.30;99.90;;;;;;5010221;28;20034;-92
2023/12/02 03:56:22;;;;;;;37.33;15.27;;;-1.40;99.90;;;;;;5033730;28;20490;-91
2023/12/02 03:58:47;;;;;;;40.30;15.27;;;-1.30;99.90;;;;;;5021117;28;20021;-91
2023/12/02 04:01:13;;;;;;;33.53;15.05;;;-1.30;99.90;;;;;;5029310;28;20037;-91
2023/12/02 04:03:39;;;;;;;39.58;16.52;;;-1.30;99.90;;;;;;5008989;28;20029;-92
2023/12/02 04:06:05;;;;;;;38.45;15.05;;;-1.30;99.90;;;;;;5027586;28;20041;-91
2023/12/02 04:08:31;;;;;;;39.15;15.23;;;-1.30;99.90;;;;;;5020399;28;20513;-91
2023/12/02 04:10:57;;;;;;;36.63;14.80;;;-1.20;99.90;;;;;;5018192;28;20039;-93
2023/12/02 04:13:23;;;;;;;38.10;15.40;;;-1.20;99.90;;;;;;5015041;28;20021;-92
2023/12/02 04:15:48;;;;;;;38.75;15.00;;;-1.20;99.90;;;;;;5042361;28;20084;-91
2023/12/02 04:18:14;;;;;;;36.95;14.73;;;-1.20;99.90;;;;;;5018419;28;20402;-92
2023/12/02 04:20:40;;;;;;;35.40;15.15;;;-1.20;99.90;;;;;;5020208;28;20041;-91
2023/12/02 04:23:05;;;;;;;37.90;15.90;;;-1.20;99.90;;;;;;5012355;28;20026;-91
2023/12/02 04:25:31;;;;;;;40.92;15.85;;;-1.20;99.90;;;;;;5021125;28;20053;-91
2023/12/02 04:27:57;;;;;;;40.75;16.63;;;-1.20;99.90;;;;;;5016429;28;20029;-91
2023/12/02 04:30:22;;;;;;;42.42;17.20;;;-1.20;99.90;;;;;;5029676;28;20026;-92
2023/12/02 04:32:48;;;;;;;41.78;16.30;;;-1.20;99.90;;;;;;5016927;28;20033;-91
2023/12/02 04:35:14;;;;;;;36.72;14.95;;;-1.20;99.90;;;;;;5020647;28;20095;-91
2023/12/02 04:37:40;;;;;;;38.50;16.35;;;-1.20;99.90;;;;;;5043819;28;20045;-91
2023/12/02 04:40:11;;;;;;;37.17;15.50;;;-1.20;99.90;;;;;;5042794;28;20125;-91
2023/12/02 04:42:37;;;;;;;39.10;15.60;;;-1.10;99.90;;;;;;5016491;28;20083;-93
2023/12/02 04:45:03;;;;;;;37.17;13.95;;;-1.20;99.90;;;;;;5023270;28;20025;-91
2023/12/02 04:47:29;;;;;;;35.88;14.73;;;-1.20;99.90;;;;;;5026886;28;20017;-91
2023/12/02 04:49:55;;;;;;;31.65;13.55;;;-1.30;99.90;;;;;;5013137;28;20125;-94
2023/12/02 04:52:20;;;;;;;30.50;13.15;;;-1.30;99.90;;;;;;5015754;28;20371;-91
2023/12/02 04:54:46;;;;;;;36.30;14.57;;;-1.30;99.90;;;;;;5020311;28;20061;-92
2023/12/02 04:57:11;;;;;;;32.35;14.27;;;-1.40;99.90;;;;;;5015786;28;20124;-92
2023/12/02 04:59:37;;;;;;;37.28;15.98;;;-1.50;99.90;;;;;;5012542;28;20025;-91
2023/12/02 05:02:03;;;;;;;32.75;13.40;;;-1.60;99.90;;;;;;5018281;28;20075;-91
2023/12/02 05:04:29;;;;;;;33.70;14.15;;;-1.70;99.90;;;;;;5017938;28;20492;-91
2023/12/02 05:06:54;;;;;;;31.80;13.98;;;-1.70;99.90;;;;;;5030169;28;20029;-91
2023/12/02 05:09:21;;;;;;;33.92;13.65;;;-1.80;99.90;;;;;;5030079;28;20025;-91
2023/12/02 05:11:47;;;;;;;35.35;14.40;;;-1.80;99.90;;;;;;5033934;28;20032;-91
2023/12/02 05:14:12;;;;;;;32.50;13.35;;;-1.90;99.90;;;;;;5016686;28;20112;-91
2023/12/02 05:16:42;;;;;;;34.80;14.70;;;-1.90;99.90;;;;;;5016200;28;20033;-93
2023/12/02 05:19:08;;;;;;;33.83;14.07;;;-1.90;99.90;;;;;;5015389;28;20022;-92
2023/12/02 05:21:35;;;;;;;33.75;13.32;;;-1.90;99.90;;;;;;5018886;28;20031;-91
2023/12/02 05:24:00;;;;;;;33.47;13.57;;;-1.80;99.90;;;;;;5023181;28;20492;-91
2023/12/02 05:26:26;;;;;;;30.60;13.30;;;-1.80;99.90;;;;;;5029247;28;20203;-92
2023/12/02 05:28:51;;;;;;;33.97;13.75;;;-1.80;99.90;;;;;;5028133;28;20120;-91
2023/12/02 05:31:19;;;;;;;33.35;13.10;;;-1.70;99.90;;;;;;5012058;28;20103;-93
2023/12/02 05:33:45;;;;;;;34.65;14.25;;;-1.70;99.90;;;;;;5016941;28;20544;-92
2023/12/02 05:36:11;;;;;;;38.72;15.55;;;-1.70;99.90;;;;;;5015884;28;20127;-93
2023/12/02 05:38:36;;;;;;;38.05;15.02;;;-1.60;99.90;;;;;;5017526;28;20069;-93
2023/12/02 05:41:03;;;;;;;36.15;15.25;;;-1.60;99.90;;;;;;5006979;28;20067;-92
2023/12/02 05:43:29;;;;;;;32.90;14.20;;;-1.60;99.90;;;;;;5013592;28;20075;-93
2023/12/02 05:45:55;;;;;;;36.78;14.73;;;-1.60;99.90;;;;;;5018853;28;20091;-92
2023/12/02 05:48:21;;;;;;;34.65;14.52;;;-1.60;99.90;;;;;;5005162;28;20026;-93
2023/12/02 05:50:46;;;;;;;34.15;14.55;;;-1.60;99.90;;;;;;5018174;28;20029;-92
2023/12/02 05:53:12;;;;;;;34.80;14.15;;;-1.60;99.90;;;;;;5008143;28;20113;-92
2023/12/02 05:55:38;;;;;;;38.75;14.57;;;-1.50;99.90;;;;;;5007856;28;20053;-92
2023/12/02 05:58:03;;;;;;;39.47;15.40;;;-1.50;99.90;;;;;;5004829;28;20032;-92
2023/12/02 06:00:29;;;;;;;34.90;14.38;;;-1.50;99.90;;;;;;5024624;28;20021;-92
2023/12/02 06:02:54;;;;;;;39.38;14.80;;;-1.50;99.90;;;;;;5008297;28;20026;-91
2023/12/02 06:05:20;;;;;;;37.47;15.02;;;-1.50;99.90;;;;;;5014055;28;20061;-91
2023/12/02 06:07:46;;;;;;;39.28;15.85;;;-1.40;99.90;;;;;;5014616;28;20057;-91
2023/12/02 06:10:11;;;;;;;35.30;14.35;;;-1.40;99.90;;;;;;5024821;28;20120;-91
2023/12/02 06:12:37;;;;;;;38.83;15.52;;;-1.40;99.90;;;;;;5025758;28;20039;-92
2023/12/02 06:15:03;;;;;;;34.50;14.43;;;-1.30;99.90;;;;;;5016376;28;20044;-92
2023/12/02 06:17:29;;;;;;;37.10;14.73;;;-1.30;99.90;;;;;;5010720;28;20021;-91
2023/12/02 06:19:55;;;;;;;35.25;14.52;;;-1.30;99.90;;;;;;5032818;28;20028;-90
2023/12/02 06:22:20;;;;;;;29.10;12.77;;;-1.30;99.90;;;;;;5017600;28;20026;-91
2023/12/02 06:24:46;;;;;;;32.92;14.95;;;-1.30;99.90;;;;;;5009273;28;20497;-90
2023/12/02 06:27:12;;;;;;;34.75;14.27;;;-1.30;99.90;;;;;;5013991;28;20049;-91
2023/12/02 06:29:37;;;;;;;29.60;13.73;;;-1.30;99.90;;;;;;5019329;28;20033;-91
2023/12/02 06:32:03;;;;;;;36.53;14.75;;;-1.30;99.90;;;;;;5018600;28;20385;-92
2023/12/02 06:34:30;;;;;;;36.22;16.00;;;-1.30;99.90;;;;;;5017080;28;20030;-93
2023/12/02 06:36:55;;;;;;;35.28;14.05;;;-1.20;99.90;;;;;;5019232;28;20108;-92
2023/12/02 06:39:21;;;;;;;35.38;14.52;;;-1.30;99.90;;;;;;5011839;28;20072;-92
2023/12/02 06:41:47;;;;;;;29.17;13.07;;;-1.30;99.90;;;;;;5008814;28;20030;-93
2023/12/02 06:44:12;;;;;;;32.40;14.00;;;-1.20;99.90;;;;;;5007441;28;20029;-92
2023/12/02 06:46:38;;;;;;;33.55;15.10;;;-1.30;99.90;;;;;;5019334;28;20052;-92
2023/12/02 06:49:03;;;;;;;33.22;13.73;;;-1.30;99.90;;;;;;5017836;28;20191;-93
2023/12/02 06:51:29;;;;;;;32.15;14.15;;;-1.30;99.90;;;;;;5014457;28;20029;-92
2023/12/02 06:53:58;;;;;;;30.50;13.20;;;-1.40;99.90;;;;;;5015206;28;20025;-93
2023/12/02 06:56:25;;;;;;;33.17;14.48;;;-1.50;99.90;;;;;;5012715;28;20030;-92
2023/12/02 06:58:52;;;;;;;33.75;14.85;;;-1.50;99.90;;;;;;5027748;28;20057;-93
2023/12/02 07:01:28;;;;;;;32.63;14.15;;;-1.60;99.90;;;;;;5018749;28;20058;-93
2023/12/02 07:03:59;;;;;;;35.90;13.95;;;-1.70;99.90;;;;;;5034610;28;20032;-92
2023/12/02 07:06:25;;;;;;;35.88;14.88;;;-1.70;99.90;;;;;;5018490;28;20378;-92
2023/12/02 07:08:52;;;;;;;36.00;15.85;;;-1.80;99.90;;;;;;5015176;28;20032;-92
2023/12/02 07:11:20;;;;;;;34.45;14.02;;;-1.80;99.90;;;;;;5015957;28;20021;-92
2023/12/02 07:13:45;;;;;;;33.42;13.88;;;-1.80;99.90;;;;;;5008236;28;20076;-92
2023/12/02 07:16:11;;;;;;;33.70;14.38;;;-1.80;99.90;;;;;;5018330;28;20030;-93
2023/12/02 07:18:38;;;;;;;32.85;14.18;;;-1.80;99.90;;;;;;5020138;28;20022;-92
2023/12/02 07:21:04;;;;;;;33.85;14.57;;;-1.80;99.90;;;;;;5031083;28;20044;-93
2023/12/02 07:23:29;;;;;;;40.80;17.02;;;-1.70;99.90;;;;;;5029380;28;20025;-92
2023/12/02 07:25:55;;;;;;;33.42;13.18;;;-1.70;99.90;;;;;;5013367;28;20045;-92
2023/12/02 07:28:21;;;;;;;39.13;15.40;;;-1.70;99.90;;;;;;5007264;28;20469;-89
2023/12/02 07:30:48;;;;;;;33.35;14.48;;;-1.70;99.90;;;;;;5017363;28;20547;-91
2023/12/02 07:33:14;;;;;;;32.60;14.60;;;-1.70;99.90;;;;;;5015129;28;20029;-93
2023/12/02 07:35:40;;;;;;;34.95;14.50;;;-1.70;99.90;;;;;;5017327;28;20095;-94
2023/12/02 07:38:05;;;;;;;33.90;14.82;;;-1.70;99.90;;;;;;5009369;28;20050;-93
2023/12/02 07:40:31;;;;;;;30.17;14.63;;;-1.70;99.90;;;;;;5014106;28;20508;-92
2023/12/02 07:42:56;;;;;;;30.13;13.32;;;-1.70;99.90;;;;;;5014689;28;20056;-93
2023/12/02 07:45:22;;;;;;;37.97;15.77;;;-1.60;99.90;;;;;;5012868;28;20084;-94
2023/12/02 07:47:47;;;;;;;37.63;14.35;;;-1.60;99.90;;;;;;5010746;28;20036;-91
2023/12/02 07:50:13;;;;;;;32.97;13.30;;;-1.50;99.90;;;;;;5007922;28;20101;-93
2023/12/02 07:52:39;;;;;;;32.05;14.82;;;-1.50;99.90;;;;;;5013258;28;20041;-93
2023/12/02 07:55:05;;;;;;;34.47;14.90;;;-1.40;99.90;;;;;;5016566;28;20026;-92
2023/12/02 07:57:30;;;;;;;37.90;15.68;;;-1.40;99.90;;;;;;5009962;28;20030;-91
2023/12/02 07:59:56;;;;;;;33.28;14.48;;;-1.30;99.90;;;;;;5006311;28;20072;-92
2023/12/02 08:02:22;;;;;;;36.88;15.52;;;-1.20;99.90;;;;;;5011917;28;20165;-92
2023/12/02 08:04:47;;;;;;;30.52;12.38;;;-1.20;99.90;;;;;;5014071;28;20030;-93
2023/12/02 08:07:13;;;;;;;31.83;15.07;;;-1.10;99.90;;;;;;5017969;28;20042;-92
2023/12/02 08:09:38;;;;;;;34.03;15.13;;;-1.10;99.90;;;;;;5017069;28;20056;-92
2023/12/02 08:12:05;;;;;;;30.50;14.18;;;-1.10;99.90;;;;;;5011299;28;20394;-93
2023/12/02 08:14:30;;;;;;;33.80;14.95;;;-1.10;99.90;;;;;;4994793;28;20019;-91
2023/12/02 08:16:56;;;;;;;31.05;13.52;;;-1.10;99.90;;;;;;4995128;28;20062;-92
2023/12/02 08:19:21;;;;;;;31.80;14.90;;;-1.20;99.90;;;;;;5018298;28;20041;-92
2023/12/02 08:21:47;;;;;;;33.15;14.35;;;-1.10;99.90;;;;;;5014855;28;20030;-93
2023/12/02 08:24:13;;;;;;;30.02;14.00;;;-1.20;99.90;;;;;;5019837;28;20022;-93
2023/12/02 08:26:38;;;;;;;35.28;14.57;;;-1.20;99.90;;;;;;5016139;28;20523;-92
2023/12/02 08:29:04;;;;;;;26.85;11.82;;;-1.20;99.90;;;;;;5022584;28;20029;-92
2023/12/02 08:31:32;;;;;;;33.55;14.07;;;-1.30;99.90;;;;;;5014158;28;20033;-92
2023/12/02 08:33:57;;;;;;;34.35;14.05;;;-1.30;99.90;;;;;;5014244;28;20566;-93
2023/12/02 08:36:23;;;;;;;28.20;12.23;;;-1.40;99.90;;;;;;5000798;28;20109;-92
2023/12/02 08:38:48;;;;;;;38.38;16.00;;;-1.40;99.90;;;;;;5019496;28;20110;-93
2023/12/02 08:41:14;;;;;;;37.47;15.20;;;-1.40;99.90;;;;;;5017458;28;20026;-92
2023/12/02 08:43:41;;;;;;;33.95;14.57;;;-1.50;99.90;;;;;;5014109;28;20045;-92
2023/12/02 08:46:21;;;;;;;35.08;15.55;;;-1.50;99.90;;;;;;5015979;28;20072;-93
2023/12/02 08:48:47;;;;;;;36.63;15.82;;;-1.50;99.90;;;;;;5016504;28;20022;-92
2023/12/02 08:51:13;;;;;;;36.75;15.88;;;-1.50;99.90;;;;;;5016436;28;20520;-93
2023/12/02 08:53:38;;;;;;;37.80;16.63;;;-1.40;99.90;;;;;;5008175;28;20019;-92
2023/12/02 08:56:04;;;;;;;37.65;16.33;;;-1.40;99.90;;;;;;5010127;28;20030;-92
2023/12/02 08:58:30;;;;;;;33.67;15.07;;;-1.40;99.90;;;;;;5018524;28;20035;-92
2023/12/02 09:00:56;;;;;;;40.38;16.55;;;-1.30;99.90;;;;;;5031471;28;20022;-91
2023/12/02 09:03:22;;;;;;;38.22;16.77;;;-1.20;99.90;;;;;;5016602;28;20034;-92
2023/12/02 09:05:48;;;;;;;36.78;15.57;;;-1.00;99.90;;;;;;5017479;28;20092;-92
2023/12/02 09:08:14;;;;;;;37.50;16.17;;;-0.80;99.90;;;;;;5022694;28;20018;-93
2023/12/02 09:10:39;;;;;;;38.88;16.67;;;-0.70;99.90;;;;;;5025351;28;20061;-93
2023/12/02 09:13:40;;;;;;;40.63;16.83;;;-0.60;99.90;;;;;;5008277;28;20053;-95
2023/12/02 09:16:18;;;;;;;37.17;15.95;;;-0.40;99.90;;;;;;5011535;28;20030;-93
2023/12/02 09:18:44;;;;;;;38.42;16.13;;;-0.30;99.90;;;;;;5022563;28;20022;-93
2023/12/02 09:21:33;;;;;;;42.97;17.70;;;-0.20;99.90;;;;;;5033414;28;20036;-93
2023/12/02 09:24:03;;;;;;;42.95;18.38;;;-0.20;99.90;;;;;;5003413;28;20485;-93
2023/12/02 09:26:34;;;;;;;44.92;19.73;;;-0.20;99.90;;;;;;5008528;28;20521;-94
2023/12/02 09:29:00;;;;;;;44.08;18.55;;;-0.20;99.90;;;;;;5008270;28;20430;-91
2023/12/02 09:31:27;;;;;;;45.05;17.85;;;-0.20;99.90;;;;;;4994847;28;20427;-93
2023/12/02 09:34:03;;;;;;;41.80;19.55;;;-0.20;99.90;;;;;;5008273;28;20026;-93
2023/12/02 09:36:39;;;;;;;45.13;19.02;;;-0.20;99.90;;;;;;5013437;28;20022;-94
2023/12/02 09:39:11;;;;;;;42.45;18.63;;;-0.20;99.90;;;;;;5009301;28;20122;-93
2023/12/02 09:41:43;;;;;;;45.95;19.48;;;-0.20;99.90;;;;;;5020653;28;20030;-92
2023/12/02 09:44:44;;;;;;;46.45;20.02;;;-0.20;99.90;;;;;;5000308;28;20200;-92
2023/12/02 09:47:19;;;;;;;47.05;19.15;;;-0.20;99.90;;;;;;4998634;28;20074;-91
2023/12/02 09:50:03;;;;;;;47.22;19.13;;;-0.10;99.90;;;;;;5012243;28;20033;-91
2023/12/02 09:52:48;;;;;;;44.03;19.40;;;-0.10;99.90;;;;;;5006477;28;20648;-91
2023/12/02 09:55:37;;;;;;;47.40;19.10;;;-0.10;99.90;;;;;;5006504;28;20045;-91
2023/12/02 09:58:25;;;;;;;46.35;18.70;;;-0.10;99.90;;;;;;5008674;28;20030;-93
2023/12/02 10:01:13;;;;;;;45.72;18.50;;;-0.10;99.90;;;;;;5007556;28;20041;-91
2023/12/02 10:03:47;;;;;;;47.35;20.20;;;-0.10;99.90;;;;;;5004126;28;20068;-92
2023/12/02 10:06:37;;;;;;;49.97;20.95;;;-0.20;99.90;;;;;;5004793;28;20540;-92
2023/12/02 10:09:37;;;;;;;45.92;17.92;;;-0.20;99.90;;;;;;5006524;28;20105;-91
2023/12/02 10:12:32;;;;;;;49.92;19.63;;;-0.10;99.90;;;;;;5011222;28;20125;-91
2023/12/02 10:15:05;;;;;;;49.90;20.73;;;0.00;99.90;;;;;;4994286;28;20034;-93
2023/12/02 10:17:37;;;;;;;44.75;19.83;;;0.00;99.90;;;;;;5011456;28;20498;-92
2023/12/02 10:20:09;;;;;;;50.55;20.45;;;0.10;99.90;;;;;;5008823;28;20113;-93
2023/12/02 10:22:43;;;;;;;42.95;18.80;;;0.20;99.90;;;;;;5008038;28;20031;-93
2023/12/02 10:25:31;;;;;;;43.80;18.15;;;0.30;99.90;;;;;;5008864;28;20079;-93
2023/12/02 10:28:12;;;;;;;48.85;20.90;;;0.30;99.90;;;;;;5009228;28;20328;-94
2023/12/02 10:30:44;;;;;;;46.80;19.75;;;0.30;99.90;;;;;;5007528;28;20030;-93
2023/12/02 10:33:15;;;;;;;45.83;20.23;;;0.40;99.90;;;;;;4997324;28;20490;-93
2023/12/02 10:35:43;;;;;;;49.72;20.92;;;0.40;99.90;;;;;;5009875;28;20030;-92
2023/12/02 10:38:28;;;;;;;48.30;21.15;;;0.40;99.90;;;;;;5012593;28;20037;-93
2023/12/02 10:41:52;;;;;;;41.65;18.75;;;0.40;99.90;;;;;;5017277;28;20021;-93
2023/12/02 10:44:21;;;;;;;46.40;18.77;;;0.40;99.90;;;;;;4912601;29;20052;-94
2023/12/02 10:46:48;;;;;;;43.78;18.55;;;0.40;99.90;;;;;;4923196;29;20099;-94
2023/12/02 10:49:14;;;;;;;44.38;19.08;;;0.40;99.90;;;;;;4983091;28;20076;-95
2023/12/02 10:51:42;;;;;;;45.17;19.23;;;0.30;99.90;;;;;;5007158;28;20113;-94
2023/12/02 10:54:11;;;;;;;41.92;18.80;;;0.30;99.90;;;;;;5021768;28;20029;-93
2023/12/02 10:56:41;;;;;;;47.10;19.67;;;0.30;99.90;;;;;;5018774;28;20036;-94
2023/12/02 10:59:08;;;;;;;50.40;20.60;;;0.30;99.90;;;;;;5033861;28;20021;-93
2023/12/02 11:01:58;;;;;;;49.53;20.25;;;0.20;99.90;;;;;;5009388;28;20040;-93
2023/12/02 11:04:30;;;;;;;52.40;21.80;;;0.20;99.90;;;;;;5002837;28;20592;-95
2023/12/02 11:07:05;;;;;;;43.88;18.88;;;0.20;99.90;;;;;;5018689;28;20437;-95
2023/12/02 11:09:53;;;;;;;42.80;18.92;;;0.20;99.90;;;;;;5026736;28;20041;-95
2023/12/02 11:12:27;;;;;;;48.17;20.27;;;0.30;99.90;;;;;;5020719;28;20056;-95
2023/12/02 11:15:01;;;;;;;44.80;19.23;;;0.30;99.90;;;;;;5012582;28;20133;-94
2023/12/02 11:17:36;;;;;;;53.70;21.60;;;0.40;99.90;;;;;;5014345;28;20075;-95
2023/12/02 11:20:22;;;;;;;45.47;20.05;;;0.40;99.90;;;;;;5019762;28;20124;-95
2023/12/02 11:22:56;;;;;;;49.40;20.77;;;0.50;99.90;;;;;;5019193;28;20140;-95
2023/12/02 11:25:48;;;;;;;50.28;21.30;;;0.50;99.90;;;;;;5014017;28;20026;-95
2023/12/02 11:28:30;;;;;;;45.75;18.95;;;0.60;99.90;;;;;;5025837;28;20035;-94
2023/12/02 11:31:21;;;;;;;50.63;21.80;;;0.70;99.90;;;;;;5026131;28;20115;-95
2023/12/02 11:34:24;;;;;;;43.03;18.77;;;0.80;99.90;;;;;;5034066;28;20032;-94
2023/12/02 11:37:05;;;;;;;47.13;17.77;;;0.90;99.90;;;;;;5012371;28;20075;-96
2023/12/02 11:39:57;;;;;;;45.47;19.73;;;0.90;99.90;;;;;;5008404;28;20037;-95
2023/12/02 11:42:25;;;;;;;45.20;18.80;;;1.00;99.90;;;;;;5021294;28;20025;-93
2023/12/02 11:45:26;;;;;;;45.75;18.00;;;1.00;99.90;;;;;;5020301;28;20492;-93
2023/12/02 11:48:03;;;;;;;44.20;18.73;;;1.00;99.90;;;;;;5027193;28;20045;-94
2023/12/02 11:50:45;;;;;;;46.97;18.77;;;1.00;99.90;;;;;;5023851;28;20456;-93
2023/12/02 11:53:11;;;;;;;;;;;1.10;99.90;;;;;;5015090;28;20025;-93
2023/12/02 11:55:56;;;;;;;48.00;19.65;;;1.10;99.90;;;;;;5017727;28;19955;-92
2023/12/02 11:58:25;;;;;;;57.75;20.92;;;1.20;99.90;;;;;;5017517;28;20029;-91
2023/12/02 12:01:10;;;;;;;48.80;19.20;;;1.20;99.90;;;;;;5016104;28;20026;-92
2023/12/02 12:04:05;;;;;;;41.65;18.05;;;1.30;99.90;;;;;;5015489;28;20025;-92
2023/12/02 12:07:08;;;;;;;48.08;19.80;;;1.30;99.90;;;;;;5002130;28;20100;-91
2023/12/02 12:09:46;;;;;;;51.83;20.50;;;1.30;99.90;;;;;;5015361;28;20055;-91
2023/12/02 12:12:14;;;;;;;40.85;18.55;;;1.20;99.90;;;;;;5032658;28;20068;-91
2023/12/02 12:14:42;;;;;;;45.33;21.50;;;1.10;99.90;;;;;;5015702;28;20379;-92
2023/12/02 12:17:08;;;;;;;52.75;22.38;;;1.10;99.90;;;;;;5020098;28;20533;-92
2023/12/02 12:19:34;;;;;;;50.95;21.83;;;1.20;99.90;;;;;;5018105;28;20121;-91
2023/12/02 12:22:00;;;;;;;51.22;21.98;;;1.30;99.90;;;;;;5022084;28;20055;-91
2023/12/02 12:24:26;;;;;;;58.85;22.30;;;1.30;99.90;;;;;;5017624;28;20404;-91
2023/12/02 12:26:52;;;;;;;54.33;22.98;;;1.40;99.90;;;;;;5018264;28;20060;-90
2023/12/02 12:29:18;;;;;;;52.33;21.35;;;1.60;99.90;;;;;;5026442;28;20025;-91
2023/12/02 12:31:44;;;;;;;58.13;24.00;;;1.60;99.90;;;;;;5015903;28;20123;-90
2023/12/02 12:34:11;;;;;;;59.97;24.20;;;1.60;99.90;;;;;;5019605;28;20045;-91
2023/12/02 12:36:39;;;;;;;61.42;23.75;;;1.50;99.90;;;;;;5015854;28;20076;-91